createdAt,value
2017-11-25T00:02:04.595Z,21.23
2017-11-25T00:04:32.217Z,15.07
2017-11-25T00:07:00.198Z,15.67
2017-11-25T00:09:28.188Z,14.43
2017-11-25T00:11:56.613Z,23.73
2017-11-25T00:14:24.243Z,16.53
2017-11-25T00:16:52.918Z,14.20
2017-11-25T00:19:20.679Z,14.37
2017-11-25T00:21:48.283Z,14.60
2017-11-25T00:24:16.632Z,14.50
2017-11-25T00:26:44.438Z,14.90
2017-11-25T00:29:12.006Z,15.97
2017-11-25T00:31:40.380Z,18.87
2017-11-25T00:34:07.974Z,17.43
2017-11-25T00:36:35.555Z,14.90
2017-11-25T00:39:03.130Z,15.10
2017-11-25T00:41:30.699Z,19.10
2017-11-25T00:43:58.281Z,15.17
2017-11-25T00:46:26.663Z,16.40
2017-11-25T00:48:54.249Z,13.57
2017-11-25T00:51:21.828Z,15.37
2017-11-25T00:53:49.560Z,14.93
2017-11-25T00:56:17.159Z,13.77
2017-11-25T00:58:44.720Z,14.63
2017-11-25T01:01:12.739Z,14.20
2017-11-25T01:03:41.164Z,15.00
2017-11-25T01:06:08.777Z,14.43
2017-11-25T01:08:37.152Z,15.03
2017-11-25T01:11:04.760Z,15.70
2017-11-25T01:13:32.412Z,16.33
2017-11-25T01:16:00.829Z,14.73
2017-11-25T01:18:28.424Z,15.90
2017-11-25T01:20:56.009Z,15.33
2017-11-25T01:23:23.633Z,14.50
2017-11-25T01:25:51.225Z,14.53
2017-11-25T01:28:18.816Z,14.37
2017-11-25T01:30:46.408Z,14.80
2017-11-25T01:33:14.900Z,16.07
2017-11-25T01:35:42.504Z,15.70
2017-11-25T01:38:10.218Z,14.57
2017-11-25T01:40:37.771Z,14.20
2017-11-25T01:43:05.319Z,13.97
2017-11-25T01:45:32.924Z,15.03
2017-11-25T01:48:00.492Z,14.03
2017-11-25T01:50:28.097Z,15.93
2017-11-25T01:52:55.665Z,15.23
2017-11-25T01:55:23.317Z,14.67
2017-11-25T01:57:50.910Z,14.03
2017-11-25T02:00:18.504Z,15.17
2017-11-25T02:02:46.267Z,14.93
2017-11-25T02:05:13.877Z,15.43
2017-11-25T02:07:42.014Z,15.50
2017-11-25T02:10:09.734Z,15.70
2017-11-25T02:12:37.313Z,15.47
2017-11-25T02:15:04.924Z,17.43
2017-11-25T02:17:33.140Z,14.83
2017-11-25T02:20:00.711Z,19.27
2017-11-25T02:22:28.316Z,20.53
2017-11-25T02:24:55.891Z,14.63
2017-11-25T02:27:23.669Z,15.27
2017-11-25T02:29:51.304Z,14.77
2017-11-25T02:32:18.992Z,14.83
2017-11-25T02:34:46.642Z,16.13
2017-11-25T02:37:14.200Z,15.63
2017-11-25T02:39:41.890Z,16.33
2017-11-25T02:42:09.483Z,16.40
2017-11-25T02:44:37.278Z,17.80
2017-11-25T02:47:04.856Z,16.33
2017-11-25T02:49:32.457Z,16.77
2017-11-25T02:52:00.783Z,16.90
2017-11-25T02:54:28.439Z,16.47
2017-11-25T02:56:56.032Z,17.03
2017-11-25T02:59:24.516Z,17.27
2017-11-25T03:01:53.575Z,17.00
2017-11-25T03:04:21.167Z,16.33
2017-11-25T03:06:48.732Z,18.37
2017-11-25T03:09:16.517Z,17.70
2017-11-25T03:11:44.221Z,18.77
2017-11-25T03:14:11.792Z,17.07
2017-11-25T03:16:39.505Z,17.50
2017-11-25T03:19:07.874Z,16.73
2017-11-25T03:21:35.572Z,17.00
2017-11-25T03:24:03.229Z,15.60
2017-11-25T03:26:30.852Z,15.70
2017-11-25T03:28:58.499Z,16.67
2017-11-25T03:31:26.572Z,15.53
2017-11-25T03:33:54.152Z,16.13
2017-11-25T03:36:21.919Z,16.00
2017-11-25T03:38:50.325Z,17.37
2017-11-25T03:41:18.243Z,15.37
2017-11-25T03:43:46.643Z,15.17
2017-11-25T03:46:15.047Z,14.93
2017-11-25T03:48:42.631Z,14.97
2017-11-25T03:51:10.223Z,15.30
2017-11-25T03:53:37.828Z,15.93
2017-11-25T03:56:05.413Z,15.17
2017-11-25T03:58:33.031Z,15.57
2017-11-25T04:01:01.450Z,13.67
2017-11-25T04:03:29.066Z,15.30
2017-11-25T04:05:56.652Z,16.53
2017-11-25T04:08:25.770Z,17.27
2017-11-25T04:10:53.377Z,19.27
2017-11-25T04:13:20.990Z,18.17
2017-11-25T04:15:48.607Z,18.90
2017-11-25T04:18:16.189Z,19.30
2017-11-25T04:20:44.553Z,19.83
2017-11-25T04:23:12.148Z,20.73
2017-11-25T04:25:39.719Z,22.77
2017-11-25T04:28:07.295Z,20.40
2017-11-25T04:30:35.759Z,22.47
2017-11-25T04:33:03.348Z,23.67
2017-11-25T04:35:31.025Z,24.67
2017-11-25T04:37:58.592Z,21.93
2017-11-25T04:40:26.176Z,25.93
2017-11-25T04:42:53.778Z,23.47
2017-11-25T04:45:21.359Z,24.07
2017-11-25T04:47:48.949Z,23.60
2017-11-25T04:50:16.559Z,24.17
2017-11-25T04:52:44.961Z,24.27
2017-11-25T04:55:12.549Z,26.77
2017-11-25T04:57:40.160Z,24.60
2017-11-25T05:00:07.771Z,26.30
2017-11-25T05:02:35.382Z,23.73
2017-11-25T05:05:02.987Z,24.87
2017-11-25T05:07:31.337Z,21.70
2017-11-25T05:09:59.135Z,29.70
2017-11-25T05:12:27.495Z,24.47
2017-11-25T05:14:55.099Z,25.33
2017-11-25T05:17:22.688Z,25.57
2017-11-25T05:19:50.290Z,27.83
2017-11-25T05:22:18.209Z,22.00
2017-11-25T05:24:45.920Z,26.43
2017-11-25T05:27:13.505Z,22.90
2017-11-25T05:29:41.071Z,25.97
2017-11-25T05:32:08.768Z,26.73
2017-11-25T05:34:36.364Z,31.43
2017-11-25T05:37:04.042Z,22.23
2017-11-25T05:39:32.465Z,31.97
2017-11-25T05:42:00.075Z,30.67
2017-11-25T05:44:27.879Z,27.43
2017-11-25T05:46:55.457Z,35.23
2017-11-25T05:49:23.122Z,34.33
2017-11-25T05:51:50.725Z,26.73
2017-11-25T05:54:18.339Z,27.73
2017-11-25T05:56:45.940Z,28.07
2017-11-25T05:59:13.718Z,23.60
2017-11-25T06:01:41.308Z,22.10
2017-11-25T06:04:09.393Z,20.80
2017-11-25T06:06:37.067Z,25.20
2017-11-25T06:09:04.643Z,23.60
2017-11-25T06:11:32.243Z,26.37
2017-11-25T06:13:59.841Z,22.57
2017-11-25T06:16:27.436Z,19.47
2017-11-25T06:18:55.000Z,21.77
2017-11-25T06:21:22.768Z,18.57
2017-11-25T06:23:50.994Z,22.37
2017-11-25T06:26:19.246Z,22.07
2017-11-25T06:28:48.048Z,20.47
2017-11-25T06:31:16.889Z,19.40
2017-11-25T06:33:46.389Z,20.83
2017-11-25T06:36:14.921Z,26.17
2017-11-25T06:38:42.608Z,22.77
2017-11-25T06:41:10.982Z,22.17
2017-11-25T06:43:41.223Z,26.00
2017-11-25T06:46:09.614Z,26.30
2017-11-25T06:48:38.680Z,23.83
2017-11-25T06:51:07.379Z,24.27
2017-11-25T06:53:35.668Z,24.27
2017-11-25T06:56:05.053Z,23.43
2017-11-25T06:58:32.811Z,26.03
2017-11-25T07:01:01.819Z,25.43
2017-11-25T07:03:30.519Z,21.27
2017-11-25T07:05:58.900Z,26.53
2017-11-25T07:08:27.233Z,32.30
2017-11-25T07:10:56.105Z,25.93
2017-11-25T07:13:24.115Z,30.70
2017-11-25T07:15:51.713Z,30.63
2017-11-25T07:18:19.326Z,39.47
2017-11-25T07:20:46.951Z,46.00
2017-11-25T07:23:15.798Z,52.37
2017-11-25T07:25:43.363Z,51.83
2017-11-25T07:28:10.928Z,30.30
2017-11-25T07:30:38.488Z,31.10
2017-11-25T07:33:06.108Z,24.40
2017-11-25T07:35:33.677Z,21.60
2017-11-25T07:38:01.278Z,27.90
2017-11-25T07:40:28.863Z,18.97
2017-11-25T07:42:56.501Z,18.33
2017-11-25T07:45:24.089Z,18.33
2017-11-25T07:47:51.721Z,20.47
2017-11-25T07:50:19.282Z,18.10
2017-11-25T07:52:46.886Z,21.13
2017-11-25T07:55:14.451Z,19.33
2017-11-25T07:57:42.052Z,24.50
2017-11-25T08:00:10.064Z,21.03
2017-11-25T08:02:38.461Z,20.67
2017-11-25T08:05:06.029Z,17.70
2017-11-25T08:07:33.618Z,20.63
2017-11-25T08:10:01.228Z,17.37
2017-11-25T08:12:29.563Z,17.60
2017-11-25T08:14:57.940Z,17.77
2017-11-25T08:17:25.575Z,21.63
2017-11-25T08:19:53.156Z,19.13
2017-11-25T08:22:20.822Z,19.30
2017-11-25T08:24:48.436Z,18.20
2017-11-25T08:27:16.071Z,17.47
2017-11-25T08:29:43.906Z,14.63
2017-11-25T08:32:11.598Z,14.53
2017-11-25T08:34:39.384Z,14.67
2017-11-25T08:37:07.770Z,14.37
2017-11-25T08:39:36.182Z,16.50
2017-11-25T08:42:03.757Z,16.23
2017-11-25T08:44:31.955Z,14.00
2017-11-25T08:47:00.357Z,17.63
2017-11-25T08:49:28.116Z,22.53
2017-11-25T08:51:55.692Z,28.07
2017-11-25T08:54:24.045Z,20.70
2017-11-25T08:56:51.605Z,35.90
2017-11-25T08:59:19.241Z,25.53
2017-11-25T09:01:46.805Z,18.07
2017-11-25T09:04:14.380Z,21.10
2017-11-25T09:06:41.964Z,14.30
2017-11-25T09:09:09.787Z,12.87
2017-11-25T09:11:37.348Z,15.87
2017-11-25T09:14:05.110Z,12.00
2017-11-25T09:16:32.696Z,15.30
2017-11-25T09:19:01.365Z,12.43
2017-11-25T09:21:29.774Z,11.30
2017-11-25T09:23:57.367Z,11.27
2017-11-25T09:26:24.944Z,7.70
2017-11-25T09:28:53.114Z,8.27
2017-11-25T09:31:20.683Z,7.37
2017-11-25T09:33:48.279Z,8.23
2017-11-25T09:38:49.835Z,5.73
2017-11-25T09:41:17.422Z,7.77
2017-11-25T09:43:45.046Z,8.00
2017-11-25T09:46:12.650Z,6.47
2017-11-25T09:48:41.016Z,9.37
2017-11-25T09:51:09.378Z,7.00
2017-11-25T09:53:37.075Z,6.87
2017-11-25T09:56:04.696Z,7.00
2017-11-25T09:58:32.544Z,8.23
2017-11-25T10:01:00.550Z,8.60
2017-11-25T10:03:29.045Z,7.10
2017-11-25T10:05:56.599Z,6.13
2017-11-25T10:08:25.232Z,8.07
2017-11-25T10:10:53.524Z,6.60
2017-11-25T10:13:21.081Z,7.23
2017-11-25T10:15:48.948Z,5.27
2017-11-25T10:18:17.239Z,5.47
2017-11-25T10:20:44.889Z,6.17
2017-11-25T10:23:12.468Z,4.50
2017-11-25T10:25:40.115Z,4.50
2017-11-25T10:28:07.896Z,4.40
2017-11-25T10:30:35.456Z,3.70
2017-11-25T10:33:03.040Z,3.00
2017-11-25T10:35:31.432Z,3.30
2017-11-25T10:37:59.047Z,3.10
2017-11-25T10:40:26.609Z,2.77
2017-11-25T10:42:54.252Z,7.40
2017-11-25T10:45:21.876Z,3.40
2017-11-25T10:47:49.520Z,6.90
2017-11-25T10:50:17.599Z,3.80
2017-11-25T10:52:45.943Z,5.53
2017-11-25T10:55:13.530Z,3.17
2017-11-25T10:57:41.146Z,2.80
2017-11-25T11:00:08.712Z,3.03
2017-11-25T11:02:36.281Z,3.30
2017-11-25T11:05:03.843Z,3.17
2017-11-25T11:07:31.453Z,3.67
2017-11-25T11:09:59.480Z,3.50
2017-11-25T11:12:27.750Z,3.00
2017-11-25T11:14:55.361Z,2.50
2017-11-25T11:17:22.924Z,3.70
2017-11-25T11:19:50.493Z,2.97
2017-11-25T11:22:18.072Z,2.97
2017-11-25T11:24:45.652Z,4.87
2017-11-25T11:27:13.256Z,3.03
2017-11-25T11:29:40.948Z,2.60
2017-11-25T11:32:08.558Z,2.37
2017-11-25T11:34:36.137Z,2.70
2017-11-25T11:37:03.841Z,2.70
2017-11-25T11:39:31.636Z,2.23
2017-11-25T11:42:00.617Z,2.80
2017-11-25T11:44:28.360Z,2.47
2017-11-25T11:46:56.245Z,2.73
2017-11-25T11:49:23.891Z,1.70
2017-11-25T11:51:51.521Z,1.97
2017-11-25T11:54:19.116Z,1.90
2017-11-25T11:56:46.868Z,2.40
2017-11-25T11:59:14.463Z,2.40
2017-11-25T12:01:42.115Z,2.80
2017-11-25T12:04:10.489Z,2.20
2017-11-25T12:06:38.474Z,1.90
2017-11-25T12:09:06.299Z,2.23
2017-11-25T12:11:34.005Z,3.67
2017-11-25T12:14:01.676Z,2.20
2017-11-25T12:16:29.284Z,2.37
2017-11-25T12:18:56.976Z,2.10
2017-11-25T12:21:24.576Z,2.00
2017-11-25T12:23:52.186Z,1.93
2017-11-25T12:26:19.852Z,1.90
2017-11-25T12:28:47.471Z,2.60
2017-11-25T12:31:15.112Z,3.00
2017-11-25T12:33:42.668Z,2.60
2017-11-25T12:36:10.229Z,1.93
2017-11-25T12:38:37.856Z,1.67
2017-11-25T12:41:05.462Z,2.90
2017-11-25T12:43:34.417Z,1.93
2017-11-25T12:46:02.074Z,2.30
2017-11-25T12:48:29.677Z,4.37
2017-11-25T12:50:58.305Z,2.43
2017-11-25T12:53:25.922Z,2.20
2017-11-25T12:55:53.559Z,2.20
2017-11-25T12:58:21.169Z,2.17
2017-11-25T13:00:48.808Z,3.23
2017-11-25T13:03:16.384Z,5.33
2017-11-25T13:05:43.987Z,2.83
2017-11-25T13:08:11.562Z,2.80
2017-11-25T13:10:39.191Z,2.20
2017-11-25T13:13:06.766Z,2.20
2017-11-25T13:15:35.290Z,2.80
2017-11-25T13:18:02.855Z,2.00
2017-11-25T13:20:30.445Z,3.67
2017-11-25T13:22:58.867Z,2.90
2017-11-25T13:25:26.422Z,2.27
2017-11-25T13:27:54.020Z,2.20
2017-11-25T13:30:23.027Z,2.77
2017-11-25T13:32:53.527Z,4.37
2017-11-25T13:35:21.826Z,3.00
2017-11-25T13:37:55.168Z,2.03
2017-11-25T13:40:24.240Z,2.50
2017-11-25T13:42:52.850Z,3.00
2017-11-25T13:45:21.256Z,3.20
2017-11-25T13:47:50.021Z,4.23
2017-11-25T13:50:19.241Z,3.70
2017-11-25T13:52:47.697Z,4.10
2017-11-25T13:55:16.266Z,3.53
2017-11-25T13:57:44.297Z,3.87
2017-11-25T14:00:13.050Z,8.33
2017-11-25T14:02:41.736Z,3.87
2017-11-25T14:05:10.820Z,3.53
2017-11-25T14:07:38.684Z,3.93
2017-11-25T14:10:06.250Z,3.17
2017-11-25T14:12:33.869Z,2.90
2017-11-25T14:15:02.224Z,2.63
2017-11-25T14:17:29.889Z,2.53
2017-11-25T14:19:57.506Z,6.87
2017-11-25T14:22:25.172Z,9.63
2017-11-25T14:24:53.561Z,2.20
2017-11-25T14:27:21.156Z,3.60
2017-11-25T14:29:48.771Z,2.90
2017-11-25T14:32:16.567Z,3.10
2017-11-25T14:34:44.168Z,1.90
2017-11-25T14:37:11.764Z,2.43
2017-11-25T14:39:39.414Z,3.30
2017-11-25T14:42:07.325Z,2.60
2017-11-25T14:44:34.968Z,3.60
2017-11-25T14:47:02.645Z,5.90
2017-11-25T14:49:30.243Z,2.80
2017-11-25T14:51:57.819Z,2.67
2017-11-25T14:54:25.486Z,2.80
2017-11-25T14:56:53.261Z,2.43
2017-11-25T14:59:26.137Z,9.67
2017-11-25T15:01:53.873Z,14.90
2017-11-25T15:04:21.459Z,3.20
2017-11-25T15:06:49.064Z,3.07
2017-11-25T15:09:16.626Z,3.03
2017-11-25T15:11:44.236Z,2.70
2017-11-25T15:14:11.816Z,4.47
2017-11-25T15:16:39.428Z,19.40
2017-11-25T15:19:07.023Z,3.50
2017-11-25T15:21:34.665Z,3.37
2017-11-25T15:24:02.288Z,2.97
2017-11-25T15:26:29.902Z,4.00
2017-11-25T15:28:57.484Z,4.03
2017-11-25T15:31:25.116Z,6.67
2017-11-25T15:33:52.749Z,9.70
2017-11-25T15:36:20.362Z,5.20
2017-11-25T15:38:47.947Z,5.57
2017-11-25T15:41:15.563Z,4.77
2017-11-25T15:43:43.322Z,5.50
2017-11-25T15:46:11.667Z,4.17
2017-11-25T15:48:39.440Z,4.13
2017-11-25T15:51:07.042Z,5.40
2017-11-25T15:53:34.609Z,17.63
2017-11-25T15:56:02.156Z,5.10
2017-11-25T15:58:29.796Z,12.50
2017-11-25T16:00:58.146Z,7.97
2017-11-25T16:03:25.800Z,4.97
2017-11-25T16:05:53.451Z,3.87
2017-11-25T16:08:21.453Z,4.60
2017-11-25T16:10:49.051Z,6.10
2017-11-25T16:13:16.617Z,3.30
2017-11-25T16:15:44.217Z,6.00
2017-11-25T16:18:11.837Z,4.63
2017-11-25T16:20:39.456Z,5.30
2017-11-25T16:23:08.525Z,4.50
2017-11-25T16:25:36.184Z,4.93
2017-11-25T16:28:03.773Z,6.03
2017-11-25T16:30:31.362Z,5.87
2017-11-25T16:32:58.942Z,6.33
2017-11-25T16:35:26.518Z,5.87
2017-11-25T16:37:54.078Z,5.80
2017-11-25T16:40:21.840Z,6.07
2017-11-25T16:42:49.418Z,6.00
2017-11-25T16:45:17.648Z,6.97
2017-11-25T16:47:45.236Z,5.30
2017-11-25T16:50:13.582Z,7.03
2017-11-25T16:52:41.954Z,8.13
2017-11-25T16:55:10.275Z,7.77
2017-11-25T16:57:37.882Z,5.67
2017-11-25T17:00:06.253Z,7.60
2017-11-25T17:02:33.938Z,6.83
2017-11-25T17:05:02.277Z,5.47
2017-11-25T17:07:29.851Z,5.77
2017-11-25T17:09:58.464Z,5.93
2017-11-25T17:12:26.076Z,8.57
2017-11-25T17:14:53.770Z,6.97
2017-11-25T17:17:21.369Z,6.80
2017-11-25T17:19:49.016Z,5.60
2017-11-25T17:22:18.151Z,5.30
2017-11-25T17:24:45.768Z,4.57
2017-11-25T17:27:13.593Z,4.70
2017-11-25T17:29:41.219Z,5.57
2017-11-25T17:32:08.926Z,11.17
2017-11-25T17:34:36.634Z,6.60
2017-11-25T17:37:04.286Z,5.07
2017-11-25T17:39:31.888Z,5.60
2017-11-25T17:41:59.498Z,7.43
2017-11-25T17:44:27.417Z,12.33
2017-11-25T17:46:55.068Z,8.20
2017-11-25T17:49:22.622Z,6.00
2017-11-25T17:51:50.258Z,8.87
2017-11-25T17:54:18.216Z,5.57
2017-11-25T17:56:46.002Z,12.90
2017-11-25T17:59:13.563Z,10.70
2017-11-25T18:01:41.162Z,10.73
2017-11-25T18:04:08.744Z,6.67
2017-11-25T18:06:36.321Z,6.30
2017-11-25T18:09:04.689Z,8.00
2017-11-25T18:11:32.663Z,6.63
2017-11-25T18:14:01.096Z,11.83
2017-11-25T18:16:28.656Z,9.07
2017-11-25T18:18:56.326Z,9.57
2017-11-25T18:21:23.908Z,9.40
2017-11-25T18:23:51.529Z,10.63
2017-11-25T18:26:19.201Z,11.03
2017-11-25T18:28:47.582Z,11.17
2017-11-25T18:31:15.160Z,13.37
2017-11-25T18:33:42.818Z,9.57
2017-11-25T18:36:10.410Z,10.50
2017-11-25T18:38:38.078Z,12.47
2017-11-25T18:41:05.725Z,11.70
2017-11-25T18:43:33.345Z,12.50
2017-11-25T18:46:00.908Z,11.93
2017-11-25T18:48:28.536Z,11.73
2017-11-25T18:50:56.144Z,11.07
2017-11-25T18:53:23.792Z,11.67
2017-11-25T18:55:51.380Z,11.53
2017-11-25T18:58:19.014Z,11.30
2017-11-25T19:00:46.621Z,12.97
2017-11-25T19:03:14.241Z,13.10
2017-11-25T19:05:41.823Z,11.87
2017-11-25T19:08:10.289Z,13.67
2017-11-25T19:10:38.081Z,13.00
2017-11-25T19:13:05.708Z,14.47
2017-11-25T19:15:33.470Z,13.33
2017-11-25T19:18:01.073Z,17.43
2017-11-25T19:20:28.686Z,17.77
2017-11-25T19:22:56.860Z,12.03
2017-11-25T19:25:24.827Z,14.10
2017-11-25T19:27:52.433Z,12.67
2017-11-25T19:30:20.693Z,14.60
2017-11-25T19:32:48.315Z,12.90
2017-11-25T19:35:16.083Z,12.73
2017-11-25T19:37:43.677Z,14.13
2017-11-25T19:40:11.311Z,14.03
2017-11-25T19:42:39.106Z,15.80
2017-11-25T19:45:06.697Z,16.43
2017-11-25T19:47:34.329Z,19.83
2017-11-25T19:50:02.170Z,17.60
2017-11-25T19:52:30.261Z,15.90
2017-11-25T19:54:57.842Z,15.97
2017-11-25T19:57:27.375Z,15.93
2017-11-25T19:59:55.405Z,15.70
2017-11-25T20:02:22.989Z,14.70
2017-11-25T20:04:50.721Z,14.83
2017-11-25T20:07:18.282Z,18.87
2017-11-25T20:09:45.873Z,14.80
2017-11-25T20:12:13.473Z,14.50
2017-11-25T20:14:41.599Z,16.70
2017-11-25T20:17:11.283Z,18.67
2017-11-25T20:19:38.908Z,16.10
2017-11-25T20:22:06.469Z,15.93
2017-11-25T20:24:34.848Z,15.13
2017-11-25T20:27:03.257Z,15.40
2017-11-25T20:29:31.587Z,14.37
2017-11-25T20:31:59.163Z,18.47
2017-11-25T20:34:29.601Z,25.30
2017-11-25T20:36:57.697Z,18.77
2017-11-25T20:39:25.319Z,15.70
2017-11-25T20:41:53.153Z,14.87
2017-11-25T20:44:22.218Z,27.10
2017-11-25T20:46:49.981Z,20.47
2017-11-25T20:49:17.978Z,23.13
2017-11-25T20:51:45.775Z,19.80
2017-11-25T20:54:13.651Z,35.70
2017-11-25T20:56:41.553Z,27.70
2017-11-25T20:59:10.136Z,18.33
2017-11-25T21:01:38.006Z,27.40
2017-11-25T21:04:06.693Z,25.03
2017-11-25T21:06:35.581Z,26.87
2017-11-25T21:09:03.652Z,32.60
2017-11-25T21:11:31.616Z,27.23
2017-11-25T21:13:59.556Z,18.37
2017-11-25T21:16:27.379Z,26.40
2017-11-25T21:18:55.325Z,15.87
2017-11-25T21:21:23.191Z,14.30
2017-11-25T21:23:51.734Z,19.77
2017-11-25T21:26:20.071Z,18.10
2017-11-25T21:28:48.142Z,18.33
2017-11-25T21:31:16.234Z,23.47
2017-11-25T21:33:43.953Z,21.70
2017-11-25T21:36:11.988Z,19.40
2017-11-25T21:38:39.662Z,16.03
2017-11-25T21:41:07.573Z,33.97
2017-11-25T21:43:36.123Z,23.13
2017-11-25T21:46:03.913Z,17.77
2017-11-25T21:48:31.520Z,19.17
2017-11-25T21:50:59.189Z,16.70
2017-11-25T21:53:26.786Z,16.60
2017-11-25T21:55:54.339Z,20.73
2017-11-25T21:58:23.435Z,16.30
2017-11-25T22:00:51.220Z,19.10
2017-11-25T22:03:19.090Z,45.87
2017-11-25T22:05:47.240Z,21.90
2017-11-25T22:08:15.456Z,21.83
2017-11-25T22:10:43.100Z,21.23
2017-11-25T22:13:10.915Z,21.17
2017-11-25T22:15:38.972Z,22.73
2017-11-25T22:18:07.729Z,27.47
2017-11-25T22:20:35.601Z,28.07
2017-11-25T22:23:03.974Z,18.83
2017-11-25T22:25:32.421Z,21.37
2017-11-25T22:28:00.084Z,22.27
2017-11-25T22:30:29.119Z,22.70
2017-11-25T22:32:56.792Z,21.37
2017-11-25T22:35:24.603Z,28.47
2017-11-25T22:37:53.899Z,21.47
2017-11-25T22:40:21.647Z,21.73
2017-11-25T22:42:49.776Z,20.80
2017-11-25T22:45:17.432Z,22.93
2017-11-25T22:47:46.140Z,24.10
2017-11-25T22:50:14.090Z,25.80
2017-11-25T22:52:41.845Z,20.87
2017-11-25T22:55:09.743Z,29.43
2017-11-25T22:57:37.450Z,24.43
2017-11-25T23:00:05.857Z,23.03
2017-11-25T23:02:33.517Z,25.40
2017-11-25T23:05:02.451Z,25.70
2017-11-25T23:07:30.140Z,26.57
2017-11-25T23:09:58.051Z,24.07
2017-11-25T23:12:25.664Z,23.83
2017-11-25T23:14:53.779Z,24.73
2017-11-25T23:17:21.584Z,25.27
2017-11-25T23:19:49.317Z,25.20
2017-11-25T23:22:16.883Z,26.57
2017-11-25T23:24:44.487Z,27.30
2017-11-25T23:27:12.825Z,24.33
2017-11-25T23:29:40.393Z,26.83
2017-11-25T23:32:07.966Z,24.10
2017-11-25T23:34:35.815Z,23.83
2017-11-25T23:37:03.376Z,27.30
2017-11-25T23:39:30.933Z,30.13
2017-11-25T23:41:58.544Z,25.73
2017-11-25T23:44:26.901Z,28.57
2017-11-25T23:46:54.493Z,28.77
2017-11-25T23:49:22.085Z,25.20
2017-11-25T23:51:49.662Z,26.80
2017-11-25T23:54:17.277Z,24.57
2017-11-25T23:56:44.902Z,24.10
2017-11-25T23:59:12.482Z,24.33
